createdAt,value
2018-09-08T00:01:26.796Z,35.5
2018-09-08T00:11:26.474Z,41.8
2018-09-08T00:21:26.755Z,37.7
2018-09-08T00:31:26.056Z,40.7
2018-09-08T00:41:26.570Z,36.9
2018-09-08T00:51:26.490Z,35.2
2018-09-08T01:01:26.534Z,36.3
2018-09-08T01:11:28.961Z,40.2
2018-09-08T01:21:27.554Z,38.0
2018-09-08T01:31:27.234Z,36.5
2018-09-08T01:41:27.293Z,29.1
2018-09-08T01:51:26.442Z,32.9
2018-09-08T02:01:30.877Z,32.6
2018-09-08T02:11:26.180Z,32.4
2018-09-08T02:21:26.561Z,32.4
2018-09-08T02:31:28.380Z,39.3
2018-09-08T02:41:28.057Z,35.6
2018-09-08T02:51:28.499Z,36.0
2018-09-08T03:01:27.774Z,38.5
2018-09-08T03:11:26.450Z,36.8
2018-09-08T03:21:26.034Z,36.9
2018-09-08T03:31:27.461Z,32.3
2018-09-08T03:41:27.338Z,30.4
2018-09-08T03:51:28.306Z,33.2
2018-09-08T04:01:26.325Z,31.2
2018-09-08T04:11:27.094Z,27.3
2018-09-08T04:21:26.685Z,36.8
2018-09-08T04:31:27.432Z,29.4
2018-09-08T04:41:27.295Z,33.0
2018-09-08T04:51:27.618Z,30.4
2018-09-08T05:01:27.352Z,28.9
2018-09-08T05:11:26.791Z,34.3
2018-09-08T05:21:25.923Z,33.4
2018-09-08T05:31:26.886Z,38.4
2018-09-08T05:41:26.471Z,36.1
2018-09-08T05:51:27.013Z,31.9
2018-09-08T06:01:28.313Z,41.3
2018-09-08T06:11:28.615Z,34.6
2018-09-08T06:21:25.701Z,38.8
2018-09-08T06:31:30.183Z,37.6
2018-09-08T06:41:27.011Z,45.6
2018-09-08T06:51:27.668Z,36.3
2018-09-08T07:01:28.146Z,38.8
2018-09-08T07:11:26.312Z,36.8
2018-09-08T07:21:26.844Z,39.3
2018-09-08T07:31:26.589Z,38.6
2018-09-08T07:41:26.657Z,40.5
2018-09-08T07:51:26.604Z,41.8
2018-09-08T08:01:25.706Z,35.2
2018-09-08T08:11:27.167Z,36.9
2018-09-08T08:21:27.015Z,37.8
2018-09-08T08:31:26.044Z,38.2
2018-09-08T08:41:25.938Z,32.5
2018-09-08T08:51:25.995Z,30.4
2018-09-08T09:01:25.922Z,34.5
2018-09-08T09:11:26.756Z,31.0
2018-09-08T09:21:25.886Z,33.8
2018-09-08T09:31:26.124Z,36.4
2018-09-08T09:41:26.220Z,39.4
2018-09-08T09:51:27.923Z,36.2
2018-09-08T10:01:27.167Z,34.0
2018-09-08T10:11:26.659Z,32.4
2018-09-08T10:21:25.763Z,24.8
2018-09-08T10:31:25.757Z,27.4
2018-09-08T10:41:25.692Z,32.2
2018-09-08T10:51:26.498Z,28.0
2018-09-08T11:01:27.362Z,27.1
2018-09-08T11:11:26.317Z,26.4
2018-09-08T11:21:27.881Z,27.7
2018-09-08T11:31:25.764Z,32.4
2018-09-08T11:41:27.757Z,35.0
2018-09-08T11:51:25.943Z,37.0
2018-09-08T12:01:27.743Z,32.8
2018-09-08T12:11:26.709Z,28.7
2018-09-08T12:21:26.086Z,24.4
2018-09-08T12:31:31.627Z,29.7
2018-09-08T12:41:26.095Z,25.0
2018-09-08T12:51:28.209Z,21.8
2018-09-08T13:01:26.591Z,26.1
2018-09-08T13:11:26.069Z,23.4
2018-09-08T13:21:26.237Z,15.8
2018-09-08T13:31:26.576Z,15.1
2018-09-08T13:41:26.609Z,22.9
2018-09-08T13:51:26.636Z,21.3
2018-09-08T14:01:25.688Z,21.8
2018-09-08T14:11:25.737Z,22.0
2018-09-08T14:21:26.133Z,26.1
2018-09-08T14:31:27.534Z,22.2
2018-09-08T14:41:27.591Z,22.8
2018-09-08T14:51:27.033Z,22.3
2018-09-08T15:01:26.625Z,31.4
2018-09-08T15:11:25.749Z,28.6
2018-09-08T15:21:26.058Z,29.0
2018-09-08T15:31:26.056Z,27.0
2018-09-08T15:41:25.926Z,18.5
2018-09-08T15:51:27.066Z,17.0
2018-09-08T16:01:27.825Z,18.5
2018-09-08T16:11:27.171Z,21.1
2018-09-08T16:21:25.887Z,25.3
2018-09-08T16:31:27.092Z,25.2
2018-09-08T16:41:26.086Z,25.7
2018-09-08T16:51:26.094Z,29.2
2018-09-08T17:01:27.238Z,22.9
2018-09-08T17:11:26.344Z,29.4
2018-09-08T17:21:25.647Z,27.1
2018-09-08T17:31:25.820Z,28.6
2018-09-08T17:41:25.774Z,29.6
2018-09-08T17:51:26.730Z,30.0
2018-09-08T18:01:26.531Z,28.2
2018-09-08T18:11:26.586Z,32.3
2018-09-08T18:21:26.112Z,29.8
2018-09-08T18:31:26.981Z,39.6
2018-09-08T18:41:26.301Z,61.0
2018-09-08T18:51:25.925Z,58.7
2018-09-08T19:01:26.269Z,60.3
2018-09-08T19:11:27.182Z,47.0
2018-09-08T19:21:25.657Z,40.7
2018-09-08T19:31:26.767Z,40.1
2018-09-08T19:41:27.759Z,40.2
2018-09-08T19:51:26.121Z,40.4
2018-09-08T20:01:26.092Z,39.2
2018-09-08T20:11:26.753Z,45.1
2018-09-08T20:21:26.794Z,48.0
2018-09-08T20:31:26.874Z,44.8
2018-09-08T20:41:27.215Z,52.5
2018-09-08T20:51:27.531Z,54.4
2018-09-08T21:01:26.747Z,48.7
2018-09-08T21:11:26.243Z,45.9
2018-09-08T21:21:26.404Z,50.4
2018-09-08T21:31:27.571Z,52.4
2018-09-08T21:41:26.713Z,54.0
2018-09-08T21:51:25.686Z,52.7
2018-09-08T22:01:27.262Z,54.1
2018-09-08T22:11:28.973Z,51.0
2018-09-08T22:21:26.873Z,45.5
2018-09-08T22:31:26.284Z,46.1
2018-09-08T22:41:26.173Z,44.4
2018-09-08T22:51:26.310Z,41.7
2018-09-08T23:01:26.394Z,39.4
2018-09-08T23:11:28.382Z,39.8
2018-09-08T23:21:27.655Z,42.0
2018-09-08T23:31:27.433Z,46.1
2018-09-08T23:41:26.714Z,39.9
2018-09-08T23:51:26.195Z,34.2
